createdAt,value
2019-04-23T00:02:44.209Z,39.10
2019-04-23T00:04:59.647Z,39.70
2019-04-23T00:10:12.385Z,39.40
2019-04-23T00:12:45.212Z,37.10
2019-04-23T00:15:21.536Z,36.20
2019-04-23T00:17:45.186Z,38.50
2019-04-23T00:20:14.727Z,37.10
2019-04-23T00:23:11.035Z,36.70
2019-04-23T00:26:17.752Z,36.60
2019-04-23T00:28:47.893Z,36.80
2019-04-23T00:31:24.524Z,36.90
2019-04-23T00:33:42.030Z,36.20
2019-04-23T00:36:22.937Z,35.90
2019-04-23T00:38:48.506Z,35.70
2019-04-23T00:41:17.851Z,36.70
2019-04-23T00:44:16.394Z,37.40
2019-04-23T00:46:22.310Z,37.50
2019-04-23T00:48:57.939Z,37.40
2019-04-23T00:51:27.454Z,38.80
2019-04-23T00:53:56.785Z,38.70
2019-04-23T00:56:40.286Z,37.30
2019-04-23T00:59:00.823Z,37.60
2019-04-23T01:04:07.176Z,39.10
2019-04-23T01:06:39.349Z,38.90
2019-04-23T01:09:08.489Z,39.10
2019-04-23T01:11:39.318Z,39.20
2019-04-23T01:14:13.657Z,39.00
2019-04-23T01:16:45.959Z,38.90
2019-04-23T01:21:43.368Z,39.20
2019-04-23T01:24:43.873Z,41.20
2019-04-23T01:27:44.613Z,41.40
2019-04-23T01:32:48.469Z,41.70
2019-04-23T01:35:24.251Z,42.80
2019-04-23T01:37:47.706Z,42.20
2019-04-23T01:40:27.220Z,42.50
2019-04-23T01:42:49.205Z,42.10
2019-04-23T01:45:24.259Z,42.60
2019-04-23T01:47:59.719Z,42.30
2019-04-23T01:50:36.508Z,41.00
2019-04-23T01:53:12.259Z,42.20
2019-04-23T01:55:45.491Z,41.00
2019-04-23T01:58:28.434Z,41.30
2019-04-23T02:00:45.126Z,41.20
2019-04-23T02:03:15.242Z,41.70
2019-04-23T02:05:50.802Z,40.10
2019-04-23T02:08:15.628Z,42.40
2019-04-23T02:13:28.579Z,40.60
2019-04-23T02:15:55.484Z,41.90
2019-04-23T02:18:43.734Z,40.80
2019-04-23T02:21:15.552Z,41.50
2019-04-23T02:23:44.367Z,41.90
2019-04-23T02:26:15.177Z,41.70
2019-04-23T02:36:22.733Z,39.80
2019-04-23T02:38:58.273Z,40.60
2019-04-23T02:41:34.733Z,40.60
2019-04-23T02:44:11.493Z,40.70
2019-04-23T02:46:31.773Z,41.70
2019-04-23T02:49:17.720Z,41.50
2019-04-23T02:59:28.578Z,40.30
2019-04-23T03:02:00.311Z,41.50
2019-04-23T03:04:26.876Z,41.70
2019-04-23T03:07:07.010Z,41.20
2019-04-23T03:09:37.034Z,41.10
2019-04-23T03:11:56.796Z,40.80
2019-04-23T03:19:38.187Z,41.60
2019-04-23T03:22:15.656Z,41.40
2019-04-23T03:25:27.863Z,41.50
2019-04-23T03:36:02.116Z,42.70
2019-04-23T03:37:55.896Z,42.80
2019-04-23T03:40:18.721Z,42.10
2019-04-23T03:43:46.411Z,43.30
2019-04-23T03:48:08.490Z,43.40
2019-04-23T03:50:35.879Z,43.10
2019-04-23T03:53:03.419Z,43.00
2019-04-23T03:55:45.369Z,42.30
2019-04-23T03:58:21.196Z,42.70
2019-04-23T04:03:42.252Z,43.30
2019-04-23T04:11:02.554Z,43.80
2019-04-23T04:13:31.074Z,43.40
2019-04-23T04:16:07.357Z,42.50
2019-04-23T04:21:08.677Z,43.20
2019-04-23T04:23:51.336Z,43.80
2019-04-23T04:26:06.987Z,42.60
2019-04-23T04:31:37.405Z,44.20
2019-04-23T04:36:26.476Z,44.10
2019-04-23T04:38:48.317Z,43.30
2019-04-23T04:41:31.227Z,43.40
2019-04-23T04:46:30.509Z,43.60
2019-04-23T04:48:58.853Z,43.70
2019-04-23T04:54:12.346Z,43.20
2019-04-23T04:56:38.402Z,42.10
2019-04-23T04:59:03.812Z,43.70
2019-04-23T05:01:28.640Z,42.80
2019-04-23T05:04:18.250Z,42.80
2019-04-23T05:06:44.406Z,42.60
2019-04-23T05:09:12.036Z,42.90
2019-04-23T05:14:12.749Z,43.70
2019-04-23T05:16:43.236Z,42.80
2019-04-23T05:19:29.782Z,42.50
2019-04-23T05:24:28.673Z,43.40
2019-04-23T05:26:48.150Z,44.60
2019-04-23T05:29:32.500Z,43.00
2019-04-23T05:31:52.940Z,42.10
2019-04-23T05:34:29.324Z,42.10
2019-04-23T05:37:00.191Z,43.30
2019-04-23T05:39:35.179Z,41.40
2019-04-23T05:42:07.127Z,42.60
2019-04-23T05:47:16.013Z,43.10
2019-04-23T05:49:45.422Z,43.40
2019-04-23T05:52:16.141Z,43.50
2019-04-23T05:54:54.780Z,44.40
2019-04-23T05:57:14.206Z,44.20
2019-04-23T05:59:51.654Z,44.20
2019-04-23T06:02:26.207Z,43.40
2019-04-23T06:04:57.289Z,44.60
2019-04-23T06:12:31.470Z,45.60
2019-04-23T06:15:07.420Z,45.00
2019-04-23T06:17:54.211Z,45.50
2019-04-23T06:20:10.176Z,43.80
2019-04-23T06:22:45.908Z,43.70
2019-04-23T06:25:21.993Z,43.40
2019-04-23T06:27:52.758Z,43.40
2019-04-23T06:30:26.651Z,44.70
2019-04-23T06:32:51.327Z,43.00
2019-04-23T06:35:23.772Z,41.70
2019-04-23T06:40:26.602Z,41.70
2019-04-23T06:43:09.791Z,41.70
2019-04-23T06:45:35.568Z,43.30
2019-04-23T06:48:09.141Z,40.60
2019-04-23T06:50:43.028Z,40.30
2019-04-23T06:53:04.254Z,41.40
2019-04-23T06:55:45.724Z,42.20
2019-04-23T06:58:18.825Z,41.60
2019-04-23T07:00:48.831Z,41.10
2019-04-23T07:03:24.160Z,40.60
2019-04-23T07:13:53.437Z,40.40
2019-04-23T07:16:14.931Z,42.30
2019-04-23T07:24:02.361Z,41.80
2019-04-23T07:26:34.847Z,40.60
2019-04-23T07:29:05.088Z,40.00
2019-04-23T07:31:37.300Z,41.20
2019-04-23T07:39:27.306Z,40.50
2019-04-23T07:42:24.742Z,40.80
2019-04-23T07:45:17.549Z,39.30
2019-04-23T07:50:49.400Z,39.80
2019-04-23T07:53:12.890Z,39.20
2019-04-23T07:58:29.128Z,35.60
2019-04-23T08:01:02.042Z,36.50
2019-04-23T08:05:44.018Z,37.50
2019-04-23T08:08:18.327Z,36.70
2019-04-23T08:16:25.844Z,39.40
2019-04-23T08:18:49.564Z,39.10
2019-04-23T08:24:01.890Z,35.50
2019-04-23T08:29:30.277Z,37.70
2019-04-23T08:39:46.901Z,34.70
2019-04-23T08:45:28.589Z,32.90
2019-04-23T08:48:17.324Z,35.70
2019-04-23T08:50:37.169Z,34.80
2019-04-23T08:53:24.747Z,34.40
2019-04-23T08:58:22.436Z,34.40
2019-04-23T09:01:12.239Z,34.80
2019-04-23T09:03:25.213Z,36.40
2019-04-23T09:06:13.770Z,35.40
2019-04-23T09:11:06.768Z,34.80
2019-04-23T09:15:59.910Z,33.40
2019-04-23T09:18:32.141Z,30.80
2019-04-23T09:21:10.533Z,30.40
2019-04-23T09:26:08.925Z,32.40
2019-04-23T09:28:53.056Z,34.20
2019-04-23T09:31:56.959Z,32.10
2019-04-23T09:36:51.676Z,32.70
2019-04-23T09:42:24.088Z,30.00
2019-04-23T09:45:14.552Z,28.70
2019-04-23T09:50:25.524Z,30.40
2019-04-23T09:53:04.938Z,31.40
2019-04-23T09:58:06.003Z,29.70
2019-04-23T10:02:59.130Z,31.70
2019-04-23T10:05:22.088Z,32.20
2019-04-23T10:07:51.783Z,29.60
2019-04-23T10:10:14.512Z,31.70
2019-04-23T10:12:46.065Z,30.40
2019-04-23T10:15:24.383Z,29.40
2019-04-23T10:17:50.049Z,29.10
2019-04-23T10:20:20.683Z,29.20
2019-04-23T10:22:52.479Z,29.80
2019-04-23T10:25:23.598Z,29.00
2019-04-23T10:28:00.617Z,29.20
2019-04-23T10:30:26.904Z,29.10
2019-04-23T10:32:57.860Z,28.30
2019-04-23T10:35:38.697Z,27.90
2019-04-23T10:38:06.348Z,27.70
2019-04-23T10:40:37.507Z,27.00
2019-04-23T10:43:05.505Z,25.70
2019-04-23T10:46:15.328Z,27.40
2019-04-23T10:49:43.986Z,26.70
2019-04-23T10:56:53.748Z,27.40
2019-04-23T11:04:54.348Z,27.20
2019-04-23T11:07:28.526Z,28.00
2019-04-23T11:10:05.765Z,24.50
2019-04-23T11:12:44.545Z,25.40
2019-04-23T11:15:36.206Z,24.90
2019-04-23T11:20:34.049Z,22.70
2019-04-23T11:23:05.019Z,23.40
2019-04-23T11:28:11.826Z,24.80
2019-04-23T11:33:25.131Z,26.20
2019-04-23T11:36:01.378Z,25.80
2019-04-23T11:38:47.450Z,26.70
2019-04-23T11:40:44.824Z,25.40
2019-04-23T11:43:29.262Z,25.60
2019-04-23T11:45:56.335Z,22.80
2019-04-23T11:51:30.277Z,21.70
2019-04-23T11:53:34.166Z,21.70
2019-04-23T11:56:02.607Z,18.00
2019-04-23T11:58:37.662Z,20.70
2019-04-23T12:01:42.274Z,20.10
2019-04-23T12:07:10.984Z,19.50
2019-04-23T12:09:48.783Z,21.30
2019-04-23T12:12:17.174Z,20.60
2019-04-23T12:14:51.113Z,20.30
2019-04-23T12:17:47.084Z,19.10
2019-04-23T12:22:41.914Z,20.00
2019-04-23T12:25:21.678Z,20.10
2019-04-23T12:27:33.234Z,21.60
2019-04-23T12:30:17.388Z,22.40
2019-04-23T12:33:04.181Z,23.80
2019-04-23T12:35:19.606Z,23.40
2019-04-23T12:38:09.814Z,23.70
2019-04-23T12:40:38.156Z,21.30
2019-04-23T12:55:57.844Z,23.80
2019-04-23T12:58:24.836Z,25.60
2019-04-23T13:01:05.251Z,23.90
2019-04-23T13:06:03.573Z,25.80
2019-04-23T13:08:38.164Z,24.90
2019-04-23T13:11:09.291Z,24.80
2019-04-23T13:13:48.488Z,24.80
2019-04-23T13:16:17.419Z,25.60
2019-04-23T13:18:46.964Z,24.80
2019-04-23T13:21:38.445Z,26.50
2019-04-23T13:23:55.564Z,26.80
2019-04-23T13:26:27.900Z,24.90
2019-04-23T13:29:01.442Z,26.70
2019-04-23T13:31:30.076Z,25.00
2019-04-23T13:34:08.870Z,25.50
2019-04-23T13:36:45.051Z,25.20
2019-04-23T13:39:24.707Z,24.00
2019-04-23T13:41:38.858Z,24.70
2019-04-23T13:44:22.834Z,26.90
2019-04-23T13:46:50.965Z,25.80
2019-04-23T13:49:18.478Z,24.50
2019-04-23T13:51:57.267Z,23.20
2019-04-23T13:59:44.350Z,21.70
2019-04-23T14:02:04.104Z,22.90
2019-04-23T14:04:48.358Z,22.30
2019-04-23T14:07:21.306Z,23.20
2019-04-23T14:10:04.464Z,21.60
2019-04-23T14:12:17.858Z,22.30
2019-04-23T14:14:55.939Z,22.90
2019-04-23T14:20:04.517Z,22.70
2019-04-23T14:22:51.314Z,24.20
2019-04-23T14:30:13.176Z,24.00
2019-04-23T14:32:38.009Z,23.70
2019-04-23T14:35:25.477Z,25.40
2019-04-23T14:37:58.105Z,24.50
2019-04-23T14:40:22.216Z,23.50
2019-04-23T14:43:09.150Z,22.40
2019-04-23T14:48:05.772Z,23.30
2019-04-23T14:53:13.132Z,22.30
2019-04-23T14:58:23.867Z,20.80
2019-04-23T15:00:52.988Z,21.30
2019-04-23T15:06:04.923Z,19.80
2019-04-23T15:08:28.563Z,20.50
2019-04-23T15:11:06.131Z,20.50
2019-04-23T15:28:37.467Z,20.30
2019-04-23T15:31:34.331Z,21.70
2019-04-23T15:34:10.714Z,22.10
2019-04-23T15:39:11.562Z,20.30
2019-04-23T15:41:43.960Z,21.50
2019-04-23T15:44:08.692Z,22.60
2019-04-23T15:46:39.070Z,22.80
2019-04-23T15:49:18.222Z,22.60
2019-04-23T15:54:30.224Z,25.80
2019-04-23T15:56:52.290Z,23.10
2019-04-23T15:59:27.512Z,22.70
2019-04-23T16:01:42.992Z,23.90
2019-04-23T16:03:57.575Z,24.50
2019-04-23T16:06:30.897Z,26.20
2019-04-23T16:09:17.897Z,23.80
2019-04-23T16:11:51.770Z,24.00
2019-04-23T16:14:34.999Z,24.90
2019-04-23T16:17:06.674Z,23.70
2019-04-23T16:19:53.509Z,24.20
2019-04-23T16:22:32.072Z,24.50
2019-04-23T16:24:55.294Z,24.60
2019-04-23T16:27:44.519Z,25.70
2019-04-23T16:30:06.260Z,25.60
2019-04-23T16:32:52.420Z,25.60
2019-04-23T16:35:28.393Z,25.70
2019-04-23T16:38:01.627Z,26.80
2019-04-23T16:40:28.929Z,25.80
2019-04-23T16:42:59.714Z,27.00
2019-04-23T16:48:09.664Z,25.90
2019-04-23T16:50:41.749Z,27.30
2019-04-23T16:53:13.508Z,26.30
2019-04-23T16:55:37.915Z,25.50
2019-04-23T16:58:11.842Z,27.90
2019-04-23T17:00:51.261Z,27.10
2019-04-23T17:03:19.648Z,25.30
2019-04-23T17:05:59.420Z,26.80
2019-04-23T17:11:00.067Z,27.90
2019-04-23T17:13:24.065Z,30.20
2019-04-23T17:15:58.065Z,29.20
2019-04-23T17:20:56.623Z,27.30
2019-04-23T17:23:40.183Z,28.30
2019-04-23T17:26:13.657Z,27.00
2019-04-23T17:28:52.801Z,27.90
2019-04-23T17:31:26.367Z,28.90
2019-04-23T17:33:43.475Z,28.50
2019-04-23T17:36:51.441Z,28.90
2019-04-23T17:39:35.537Z,29.60
2019-04-23T17:42:27.408Z,29.40
2019-04-23T17:45:17.952Z,29.20
2019-04-23T17:47:37.498Z,29.60
2019-04-23T17:50:13.481Z,30.40
2019-04-23T17:52:51.183Z,30.70
2019-04-23T17:57:43.665Z,32.00
2019-04-23T18:05:37.140Z,34.60
2019-04-23T18:08:05.289Z,35.10
2019-04-23T18:10:34.032Z,35.00
2019-04-23T18:15:17.482Z,36.50
2019-04-23T18:20:36.915Z,37.00
2019-04-23T18:23:24.196Z,38.40
2019-04-23T18:28:17.225Z,39.40
2019-04-23T18:34:08.668Z,40.10
2019-04-23T18:36:31.773Z,40.90
2019-04-23T18:39:06.394Z,41.40
2019-04-23T18:41:42.707Z,41.80
2019-04-23T18:44:17.252Z,42.40
2019-04-23T18:46:43.584Z,43.40
2019-04-23T18:49:13.129Z,43.80
2019-04-23T18:51:58.066Z,43.70
2019-04-23T18:54:15.351Z,45.50
2019-04-23T18:57:06.561Z,46.20
2019-04-23T18:59:28.734Z,46.50
2019-04-23T19:02:11.156Z,47.00
2019-04-23T19:04:54.328Z,47.60
2019-04-23T19:07:32.238Z,47.90
2019-04-23T19:10:27.586Z,48.60
2019-04-23T19:13:12.587Z,49.70
2019-04-23T19:18:19.153Z,50.30
2019-04-23T19:23:25.933Z,50.60
2019-04-23T19:25:51.454Z,51.30
2019-04-23T19:31:07.475Z,54.10
2019-04-23T19:33:49.228Z,57.30
2019-04-23T19:38:44.133Z,61.00
2019-04-23T19:41:08.905Z,63.70
2019-04-23T19:43:49.472Z,64.80
2019-04-23T19:48:57.920Z,68.00
2019-04-23T19:51:30.155Z,68.40
2019-04-23T19:54:17.153Z,68.20
2019-04-23T19:58:56.929Z,70.40
2019-04-23T20:01:33.829Z,71.20
2019-04-23T20:03:55.991Z,71.60
2019-04-23T20:06:58.850Z,74.00
2019-04-23T20:09:30.340Z,74.70
2019-04-23T20:11:50.591Z,78.40
2019-04-23T20:14:11.296Z,75.30
2019-04-23T20:17:04.078Z,75.00
2019-04-23T20:19:18.488Z,77.50
2019-04-23T20:21:57.352Z,74.50
2019-04-23T20:24:28.266Z,73.00
2019-04-23T20:26:59.363Z,74.10
2019-04-23T20:30:05.366Z,74.40
2019-04-23T20:35:00.343Z,80.20
2019-04-23T20:37:42.739Z,80.50
2019-04-23T20:39:59.923Z,79.10
2019-04-23T20:45:07.842Z,81.10
2019-04-23T20:51:14.311Z,82.30
2019-04-23T20:53:56.767Z,84.00
2019-04-23T20:56:30.214Z,84.60
2019-04-23T21:01:37.235Z,86.60
2019-04-23T21:04:01.692Z,87.30
2019-04-23T21:06:44.176Z,88.60
2019-04-23T21:11:48.214Z,89.90
2019-04-23T21:14:31.807Z,89.20
2019-04-23T21:19:26.207Z,91.30
2019-04-23T21:22:14.129Z,91.30
2019-04-23T21:24:42.956Z,91.70
2019-04-23T21:27:38.565Z,92.80
2019-04-23T21:30:03.052Z,93.90
2019-04-23T21:32:42.269Z,94.00
2019-04-23T21:38:00.370Z,94.60
2019-04-23T21:41:01.781Z,94.70
2019-04-23T21:43:47.538Z,96.50
2019-04-23T21:46:15.353Z,98.10
2019-04-23T21:51:26.209Z,99.80
2019-04-23T21:53:46.077Z,99.90
2019-04-23T21:56:15.310Z,99.90
2019-04-23T21:59:05.953Z,99.90
2019-04-23T22:01:32.951Z,99.90
2019-04-23T22:04:08.874Z,99.90
2019-04-23T22:09:04.370Z,99.90
2019-04-23T22:16:55.753Z,99.90
2019-04-23T22:21:50.203Z,99.90
2019-04-23T22:29:18.756Z,99.90
2019-04-23T22:34:22.086Z,99.90
2019-04-23T22:39:21.927Z,99.90
2019-04-23T22:42:08.866Z,99.90
2019-04-23T22:44:30.892Z,99.90
2019-04-23T22:47:03.991Z,99.90
2019-04-23T22:49:45.155Z,99.90
2019-04-23T22:52:11.335Z,99.90
2019-04-23T22:54:51.672Z,99.90
2019-04-23T22:57:04.754Z,99.90
2019-04-23T22:59:56.444Z,99.90
2019-04-23T23:02:40.762Z,99.90
2019-04-23T23:05:20.200Z,99.90
2019-04-23T23:07:47.729Z,99.90
2019-04-23T23:10:14.086Z,99.90
2019-04-23T23:17:56.309Z,99.90
2019-04-23T23:22:59.081Z,99.90
2019-04-23T23:25:24.769Z,99.90
2019-04-23T23:27:58.950Z,99.90
2019-04-23T23:30:28.295Z,99.90
2019-04-23T23:33:00.636Z,99.90
2019-04-23T23:35:27.709Z,99.90
2019-04-23T23:38:03.859Z,99.90
2019-04-23T23:40:44.072Z,99.90
2019-04-23T23:43:15.801Z,99.90
2019-04-23T23:48:06.678Z,99.90
2019-04-23T23:50:46.039Z,99.90
2019-04-23T23:55:52.349Z,99.90
2019-04-23T23:58:23.512Z,99.90
